Time;durP1;ratioP1;P1;durP2;ratioP2;P2;SDS_P1;SDS_P2;PMS_P1;PMS_P2;Temp;Humidity;BMP_temperature;BMP_pressure;BME280_temperature;BME280_humidity;BME280_pressure;Samples;Min_cycle;Max_cycle;Signal;HPM_P1;HPM_P2
2022/05/24 00:01:38;;;;;;;6.20;2.05;;;;;;;;;;5063037;28;20025;-76
2022/05/24 00:04:04;;;;;;;3.67;1.98;;;;;;;;;;5062379;28;20170;-75
2022/05/24 00:06:34;;;;;;;6.25;2.10;;;;;;;;;;5065962;28;20025;-74
2022/05/24 00:09:00;;;;;;;6.45;1.77;;;;;;;;;;5081832;28;20492;-75
2022/05/24 00:11:26;;;;;;;4.20;1.90;;;;;;;;;;5067830;28;20036;-75
2022/05/24 00:13:52;;;;;;;4.63;2.00;;;;;;;;;;5070819;28;20025;-73
2022/05/24 00:16:19;;;;;;;3.28;1.98;;;;;;;;;;5069897;28;20033;-74
2022/05/24 00:18:45;;;;;;;2.88;1.90;;;;;;;;;;5087944;28;20024;-75
2022/05/24 00:21:14;;;;;;;5.82;1.95;;;;;;;;;;5084190;28;20493;-75
2022/05/24 00:23:40;;;;;;;5.55;2.00;;;;;;;;;;5066523;28;20143;-75
2022/05/24 00:26:07;;;;;;;6.18;1.90;;;;;;;;;;5078766;28;20505;-76
2022/05/24 00:28:34;;;;;;;3.28;1.90;;;;;;;;;;5084446;28;20083;-75
2022/05/24 00:31:00;;;;;;;2.42;1.92;;;;;;;;;;5086378;28;20107;-73
2022/05/24 00:33:27;;;;;;;2.10;1.67;;;;;;;;;;5068712;28;20466;-74
2022/05/24 00:35:57;;;;;;;2.05;1.77;;;;;;;;;;5085002;28;20500;-73
2022/05/24 00:38:26;;;;;;;2.58;1.70;;;;;;;;;;5070443;28;20055;-72
2022/05/24 00:41:06;;;;;;;6.75;2.10;;;;;;;;;;5079947;28;20035;-75
2022/05/24 00:43:36;;;;;;;3.95;2.05;;;;;;;;;;5078752;28;20043;-74
2022/05/24 00:46:16;;;;;;;3.42;2.00;;;;;;;;;;5082661;28;20393;-75
2022/05/24 00:48:55;;;;;;;2.63;1.70;;;;;;;;;;5076561;28;20054;-73
2022/05/24 00:51:25;;;;;;;2.95;1.80;;;;;;;;;;5078039;28;20505;-75
2022/05/24 00:53:53;;;;;;;2.97;1.95;;;;;;;;;;5059748;28;20029;-74
2022/05/24 00:56:19;;;;;;;3.75;1.80;;;;;;;;;;5059515;28;20031;-76
2022/05/24 00:58:48;;;;;;;7.25;1.98;;;;;;;;;;5063927;28;20040;-77
2022/05/24 01:01:33;;;;;;;3.15;1.80;;;;;;;;;;5070880;28;20036;-78
2022/05/24 01:04:02;;;;;;;1.83;1.70;;;;;;;;;;5083617;28;20381;-78
2022/05/24 01:06:28;;;;;;;4.07;2.08;;;;;;;;;;5086150;28;20150;-75
2022/05/24 01:08:55;;;;;;;3.20;1.90;;;;;;;;;;5080242;28;20088;-76
2022/05/24 01:11:22;;;;;;;5.65;2.35;;;;;;;;;;5064597;28;20037;-77
2022/05/24 01:13:50;;;;;;;3.42;1.70;;;;;;;;;;5060553;28;20058;-76
2022/05/24 01:16:16;;;;;;;2.00;1.80;;;;;;;;;;5076032;28;20021;-78
2022/05/24 01:18:43;;;;;;;3.58;1.90;;;;;;;;;;5075958;28;20028;-76
2022/05/24 01:21:10;;;;;;;3.20;1.77;;;;;;;;;;5066814;28;20024;-76
2022/05/24 01:23:55;;;;;;;7.00;2.15;;;;;;;;;;5082936;28;20032;-76
2022/05/24 01:26:30;;;;;;;6.78;2.10;;;;;;;;;;5090948;28;20040;-77
2022/05/24 01:28:59;;;;;;;1.95;1.45;;;;;;;;;;5073030;28;20049;-76
2022/05/24 01:36:09;;;;;;;2.55;1.75;;;;;;;;;;5071845;28;20021;-72
2022/05/24 01:36:59;;;;;;;8.10;1.65;;;;;;;;;;5075156;28;20414;-72
2022/05/24 01:39:25;;;;;;;4.75;2.08;;;;;;;;;;5070197;28;20086;-75
2022/05/24 01:41:51;;;;;;;2.45;1.65;;;;;;;;;;5065965;28;20482;-74
2022/05/24 01:44:29;;;;;;;5.25;2.15;;;;;;;;;;5085481;28;20039;-76
2022/05/24 01:46:57;;;;;;;2.65;1.80;;;;;;;;;;5080471;28;20025;-75
2022/05/24 01:49:25;;;;;;;3.35;1.70;;;;;;;;;;5084706;28;20130;-74
2022/05/24 01:52:00;;;;;;;4.15;1.90;;;;;;;;;;5087490;28;20070;-73
2022/05/24 01:54:26;;;;;;;4.22;2.15;;;;;;;;;;5067426;28;20028;-71
2022/05/24 01:56:57;;;;;;;4.75;1.75;;;;;;;;;;5074950;28;20047;-77
2022/05/24 01:59:24;;;;;;;3.80;2.10;;;;;;;;;;5065106;28;20032;-73
2022/05/24 02:01:55;;;;;;;3.65;1.80;;;;;;;;;;5077943;28;20021;-76
2022/05/24 02:04:24;;;;;;;2.10;1.65;;;;;;;;;;5074879;28;20028;-79
2022/05/24 02:07:26;;;;;;;4.90;1.80;;;;;;;;;;5092999;28;20020;-81
2022/05/24 02:09:54;;;;;;;2.65;1.77;;;;;;;;;;4985910;28;20039;-76
2022/05/24 02:12:23;;;;;;;1.90;1.65;;;;;;;;;;4970828;28;20125;-78
2022/05/24 02:14:54;;;;;;;4.05;1.90;;;;;;;;;;4982059;28;20031;-76
2022/05/24 02:17:23;;;;;;;2.00;1.65;;;;;;;;;;4971316;28;20082;-79
2022/05/24 02:19:53;;;;;;;3.10;1.65;;;;;;;;;;4985659;28;20022;-76
2022/05/24 02:22:24;;;;;;;2.35;1.80;;;;;;;;;;4975048;28;20035;-77
2022/05/24 02:25:03;;;;;;;3.47;1.95;;;;;;;;;;4981142;28;20122;-74
2022/05/24 02:27:29;;;;;;;7.78;2.55;;;;;;;;;;4968165;29;20103;-77
2022/05/24 02:29:55;;;;;;;2.92;1.80;;;;;;;;;;4968256;29;20035;-77
2022/05/24 02:32:22;;;;;;;3.17;1.90;;;;;;;;;;4962647;28;20099;-76
2022/05/24 02:34:48;;;;;;;3.80;1.88;;;;;;;;;;4985044;28;20031;-76
2022/05/24 02:37:14;;;;;;;3.30;1.80;;;;;;;;;;4979552;28;20038;-76
2022/05/24 02:42:24;;;;;;;2.92;1.60;;;;;;;;;;4981701;28;20077;-76
2022/05/24 02:44:50;;;;;;;4.07;1.80;;;;;;;;;;5053989;28;20056;-77
2022/05/24 02:47:17;;;;;;;2.80;1.60;;;;;;;;;;5062309;28;20021;-77
2022/05/24 02:49:43;;;;;;;1.70;1.60;;;;;;;;;;5061451;28;20056;-77
2022/05/24 02:52:09;;;;;;;2.75;1.50;;;;;;;;;;5059930;28;20021;-74
2022/05/24 02:54:35;;;;;;;1.77;1.50;;;;;;;;;;5040780;28;20036;-74
2022/05/24 02:57:04;;;;;;;4.75;1.77;;;;;;;;;;5075774;28;20473;-74
2022/05/24 02:59:30;;;;;;;3.63;1.75;;;;;;;;;;5078850;28;20017;-77
2022/05/24 03:01:59;;;;;;;3.78;1.92;;;;;;;;;;5078364;28;20028;-77
2022/05/24 03:04:25;;;;;;;4.38;1.60;;;;;;;;;;5063150;28;20029;-77
2022/05/24 03:09:36;;;;;;;2.60;1.83;;;;;;;;;;5078613;28;20104;-74
2022/05/24 03:14:56;;;;;;;5.45;2.00;;;;;;;;;;5081629;28;20039;-77
2022/05/24 03:17:23;;;;;;;2.38;1.80;;;;;;;;;;5063168;28;20154;-77
2022/05/24 03:19:49;;;;;;;3.20;1.80;;;;;;;;;;5081561;28;20025;-75
2022/05/24 03:22:15;;;;;;;3.78;1.88;;;;;;;;;;5070528;28;20029;-75
2022/05/24 03:24:41;;;;;;;4.65;1.90;;;;;;;;;;5059607;28;20036;-77
2022/05/24 03:27:11;;;;;;;2.20;2.00;;;;;;;;;;5061219;28;20048;-75
2022/05/24 03:29:46;;;;;;;7.05;2.10;;;;;;;;;;5059332;28;20024;-75
2022/05/24 03:32:13;;;;;;;3.67;2.03;;;;;;;;;;5068543;28;20046;-77
2022/05/24 03:34:40;;;;;;;5.22;1.90;;;;;;;;;;5083914;28;20028;-77
2022/05/24 03:37:06;;;;;;;6.00;2.13;;;;;;;;;;5067705;28;20021;-76
2022/05/24 03:39:33;;;;;;;7.10;2.40;;;;;;;;;;5062365;28;20397;-74
2022/05/24 03:41:59;;;;;;;3.72;2.08;;;;;;;;;;5061895;28;20029;-75
2022/05/24 03:44:25;;;;;;;4.55;1.67;;;;;;;;;;5066918;28;20058;-77
2022/05/24 03:46:52;;;;;;;4.28;1.83;;;;;;;;;;5072431;28;20399;-74
2022/05/24 03:49:18;;;;;;;2.03;1.80;;;;;;;;;;5058825;28;20025;-76
2022/05/24 03:51:45;;;;;;;5.20;2.10;;;;;;;;;;5060557;28;20017;-73
2022/05/24 03:54:12;;;;;;;3.28;2.10;;;;;;;;;;5065205;28;20508;-77
2022/05/24 03:56:39;;;;;;;5.95;1.90;;;;;;;;;;5077690;28;20032;-75
2022/05/24 03:59:05;;;;;;;8.90;1.88;;;;;;;;;;5082851;28;20032;-76
2022/05/24 04:01:31;;;;;;;4.32;1.60;;;;;;;;;;5068721;28;20029;-75
2022/05/24 04:04:00;;;;;;;2.25;1.60;;;;;;;;;;5070191;28;20043;-76
2022/05/24 04:06:26;;;;;;;2.92;1.90;;;;;;;;;;5063717;28;20112;-77
2022/05/24 04:08:52;;;;;;;2.60;1.77;;;;;;;;;;5074426;28;20060;-76
2022/05/24 04:11:18;;;;;;;3.72;1.63;;;;;;;;;;5068740;28;20028;-79
2022/05/24 04:13:44;;;;;;;5.45;1.90;;;;;;;;;;5059418;28;20391;-78
2022/05/24 04:16:10;;;;;;;3.03;1.70;;;;;;;;;;5060687;28;20032;-74
2022/05/24 04:18:36;;;;;;;3.47;1.60;;;;;;;;;;5059133;28;20107;-73
2022/05/24 04:21:03;;;;;;;4.25;1.83;;;;;;;;;;5058032;28;20025;-75
2022/05/24 04:23:29;;;;;;;2.17;1.60;;;;;;;;;;5063786;28;20047;-73
2022/05/24 04:25:55;;;;;;;4.65;2.05;;;;;;;;;;5076052;28;20024;-75
2022/05/24 04:28:22;;;;;;;3.25;1.88;;;;;;;;;;5078944;28;20056;-77
2022/05/24 04:30:49;;;;;;;2.42;1.60;;;;;;;;;;5078259;28;20067;-72
2022/05/24 04:33:16;;;;;;;3.70;1.75;;;;;;;;;;5055792;28;20025;-74
2022/05/24 04:35:43;;;;;;;2.85;1.75;;;;;;;;;;5065253;28;20075;-76
2022/05/24 04:38:10;;;;;;;4.13;2.08;;;;;;;;;;5059945;28;20024;-74
2022/05/24 04:43:23;;;;;;;5.20;2.10;;;;;;;;;;5054670;28;20095;-75
2022/05/24 04:46:03;;;;;;;9.00;1.98;;;;;;;;;;5063935;28;20025;-79
2022/05/24 04:48:29;;;;;;;4.28;1.90;;;;;;;;;;5063417;28;20024;-75
2022/05/24 04:50:56;;;;;;;5.78;2.10;;;;;;;;;;5070381;28;20078;-79
2022/05/24 04:53:23;;;;;;;6.43;2.20;;;;;;;;;;5067445;28;20029;-76
2022/05/24 04:55:50;;;;;;;7.60;2.10;;;;;;;;;;5061136;28;20029;-84
2022/05/24 04:58:16;;;;;;;4.63;2.00;;;;;;;;;;5062895;28;20025;-75
2022/05/24 05:00:42;;;;;;;9.00;2.50;;;;;;;;;;5066101;28;20030;-75
2022/05/24 05:03:14;;;;;;;8.57;2.30;;;;;;;;;;5064677;28;20486;-74
2022/05/24 05:05:40;;;;;;;9.00;2.72;;;;;;;;;;5065282;28;20045;-79
2022/05/24 05:08:07;;;;;;;4.88;2.33;;;;;;;;;;5060078;28;20024;-81
2022/05/24 05:10:34;;;;;;;6.22;2.53;;;;;;;;;;5063291;28;20086;-72
2022/05/24 05:13:01;;;;;;;4.20;2.47;;;;;;;;;;5057595;28;20037;-78
2022/05/24 05:15:27;;;;;;;5.63;2.20;;;;;;;;;;5057401;28;20035;-77
2022/05/24 05:18:13;;;;;;;4.90;2.30;;;;;;;;;;5059594;28;20482;-74
2022/05/24 05:20:41;;;;;;;6.97;2.30;;;;;;;;;;5069816;28;20028;-80
2022/05/24 05:23:08;;;;;;;7.32;2.55;;;;;;;;;;5068911;28;20111;-74
2022/05/24 05:25:35;;;;;;;5.90;2.50;;;;;;;;;;5060660;28;20020;-87
2022/05/24 05:28:02;;;;;;;10.70;2.40;;;;;;;;;;5062757;28;20057;-73
2022/05/24 05:33:14;;;;;;;3.42;2.28;;;;;;;;;;5062938;28;20441;-82
2022/05/24 05:35:40;;;;;;;7.10;2.30;;;;;;;;;;5059230;28;20067;-70
2022/05/24 05:38:06;;;;;;;4.93;2.45;;;;;;;;;;5056614;28;20447;-69
2022/05/24 05:40:32;;;;;;;9.00;2.65;;;;;;;;;;5063490;28;20102;-73
2022/05/24 05:42:58;;;;;;;8.75;2.42;;;;;;;;;;5064373;28;20040;-76
2022/05/24 05:45:24;;;;;;;6.18;3.05;;;;;;;;;;5063202;28;20029;-73
2022/05/24 05:47:52;;;;;;;5.03;2.40;;;;;;;;;;5060020;28;20513;-79
2022/05/24 05:50:19;;;;;;;4.05;2.45;;;;;;;;;;5047224;28;20424;-86
2022/05/24 05:52:45;;;;;;;6.65;2.25;;;;;;;;;;5058895;28;20017;-84
2022/05/24 05:55:12;;;;;;;5.13;2.40;;;;;;;;;;5044990;28;20410;-80
2022/05/24 05:57:38;;;;;;;7.45;2.30;;;;;;;;;;5057015;28;20406;-74
2022/05/24 06:00:05;;;;;;;10.30;3.00;;;;;;;;;;5056157;28;20367;-87
2022/05/24 06:02:31;;;;;;;4.85;2.45;;;;;;;;;;5060913;28;20028;-86
2022/05/24 06:04:57;;;;;;;4.85;2.50;;;;;;;;;;5057082;28;20064;-85
2022/05/24 06:07:23;;;;;;;11.02;2.65;;;;;;;;;;5049180;28;20040;-72
2022/05/24 06:09:50;;;;;;;11.35;2.50;;;;;;;;;;5061610;28;20035;-74
2022/05/24 06:12:17;;;;;;;9.30;2.95;;;;;;;;;;5056078;28;20096;-72
2022/05/24 06:17:33;;;;;;;9.23;2.90;;;;;;;;;;5064357;23;20122;-84
2022/05/24 06:20:00;;;;;;;4.72;2.35;;;;;;;;;;5053830;28;20116;-85
2022/05/24 06:22:26;;;;;;;6.03;2.55;;;;;;;;;;5040151;28;20512;-85
2022/05/24 06:24:52;;;;;;;5.90;2.55;;;;;;;;;;5074662;28;20107;-77
2022/05/24 06:27:21;;;;;;;7.22;2.63;;;;;;;;;;5076937;28;20021;-78
2022/05/24 06:32:42;;;;;;;4.32;2.40;;;;;;;;;;5077605;23;20141;-89
2022/05/24 06:35:08;;;;;;;7.78;2.30;;;;;;;;;;5015764;28;20037;-85
2022/05/24 06:37:34;;;;;;;7.88;2.50;;;;;;;;;;5022409;28;20076;-86
2022/05/24 06:40:00;;;;;;;19.15;2.80;;;;;;;;;;5017626;28;20025;-81
2022/05/24 06:42:27;;;;;;;12.18;2.60;;;;;;;;;;5032360;28;20030;-80
2022/05/24 06:44:53;;;;;;;11.43;2.28;;;;;;;;;;5016124;28;20039;-80
2022/05/24 06:47:19;;;;;;;9.95;2.67;;;;;;;;;;5033844;28;20021;-81
2022/05/24 06:49:45;;;;;;;5.80;2.55;;;;;;;;;;5016540;28;20026;-85
2022/05/24 06:52:11;;;;;;;8.38;2.38;;;;;;;;;;5015441;28;20075;-87
2022/05/24 06:54:37;;;;;;;14.48;2.65;;;;;;;;;;5044685;28;20067;-87
2022/05/24 06:57:03;;;;;;;12.20;2.58;;;;;;;;;;5040329;28;20495;-71
2022/05/24 07:02:26;;;;;;;18.25;2.83;;;;;;;;;;5030424;28;20076;-74
2022/05/24 07:05:03;;;;;;;8.18;2.40;;;;;;;;;;5022988;28;20041;-74
2022/05/24 07:07:30;;;;;;;3.75;2.53;;;;;;;;;;5040303;28;20029;-78
2022/05/24 07:09:56;;;;;;;16.65;3.22;;;;;;;;;;5042025;28;20028;-74
2022/05/24 07:12:23;;;;;;;14.68;2.45;;;;;;;;;;5039280;28;20087;-72
2022/05/24 07:14:49;;;;;;;5.60;2.42;;;;;;;;;;5033026;28;20396;-76
2022/05/24 07:17:17;;;;;;;4.40;2.30;;;;;;;;;;5032618;28;20021;-82
2022/05/24 07:19:43;;;;;;;4.40;2.38;;;;;;;;;;5033223;28;20025;-83
2022/05/24 07:22:09;;;;;;;3.42;2.47;;;;;;;;;;5034351;28;20045;-82
2022/05/24 07:24:35;;;;;;;10.85;3.03;;;;;;;;;;5033830;28;20163;-76
2022/05/24 07:27:04;;;;;;;11.80;2.72;;;;;;;;;;5041109;28;20025;-77
2022/05/24 07:29:33;;;;;;;9.07;2.92;;;;;;;;;;5039232;28;20501;-75
2022/05/24 07:32:00;;;;;;;9.13;2.70;;;;;;;;;;5029830;28;20046;-82
2022/05/24 07:34:26;;;;;;;6.20;2.53;;;;;;;;;;5031990;28;20435;-77
2022/05/24 07:36:53;;;;;;;11.80;2.72;;;;;;;;;;5014520;28;20403;-80
2022/05/24 07:39:19;;;;;;;8.50;3.05;;;;;;;;;;5028658;28;20029;-77
2022/05/24 07:47:14;;;;;;;9.75;2.90;;;;;;;;;;5017173;28;20068;-78
2022/05/24 07:49:41;;;;;;;9.35;3.15;;;;;;;;;;5015150;28;20098;-80
2022/05/24 07:52:07;;;;;;;7.80;2.92;;;;;;;;;;5032407;28;20467;-77
2022/05/24 07:54:33;;;;;;;5.13;2.70;;;;;;;;;;5010988;28;20037;-80
2022/05/24 07:57:00;;;;;;;4.90;2.58;;;;;;;;;;5031987;28;20029;-81
2022/05/24 07:59:26;;;;;;;7.32;2.65;;;;;;;;;;5014486;28;20056;-78
2022/05/24 08:01:52;;;;;;;16.42;2.63;;;;;;;;;;5032679;28;20037;-74
2022/05/24 08:04:19;;;;;;;8.30;2.65;;;;;;;;;;5032135;28;20048;-79
2022/05/24 08:06:45;;;;;;;10.95;3.55;;;;;;;;;;5014602;28;20434;-74
2022/05/24 08:09:11;;;;;;;16.50;2.50;;;;;;;;;;5031111;28;20033;-77
2022/05/24 08:11:37;;;;;;;6.78;2.65;;;;;;;;;;5014952;28;20022;-77
2022/05/24 08:14:04;;;;;;;10.60;2.83;;;;;;;;;;5031431;28;20072;-77
2022/05/24 08:16:32;;;;;;;5.03;2.40;;;;;;;;;;5014900;28;20021;-75
2022/05/24 08:19:02;;;;;;;4.03;2.28;;;;;;;;;;5000739;28;20030;-75
2022/05/24 08:21:29;;;;;;;14.98;2.67;;;;;;;;;;4994999;28;20417;-75
2022/05/24 08:23:55;;;;;;;5.82;2.90;;;;;;;;;;5024047;28;20041;-76
2022/05/24 08:26:21;;;;;;;8.20;2.97;;;;;;;;;;5013421;28;20037;-78
2022/05/24 08:28:47;;;;;;;8.55;2.75;;;;;;;;;;5014488;28;20041;-75
2022/05/24 08:31:14;;;;;;;9.77;2.55;;;;;;;;;;5010757;28;20519;-79
2022/05/24 08:33:40;;;;;;;8.30;2.80;;;;;;;;;;5012723;28;20030;-75
2022/05/24 08:36:07;;;;;;;11.38;5.25;;;;;;;;;;5015686;28;20022;-79
2022/05/24 08:38:34;;;;;;;9.35;3.30;;;;;;;;;;5013714;28;20049;-75
2022/05/24 08:41:03;;;;;;;8.00;3.33;;;;;;;;;;5011710;28;20490;-78
2022/05/24 08:43:44;;;;;;;14.25;3.33;;;;;;;;;;5015832;28;20033;-76
2022/05/24 08:49:03;;;;;;;10.43;3.00;;;;;;;;;;5015386;28;20157;-82
2022/05/24 08:51:38;;;;;;;26.27;3.58;;;;;;;;;;5016205;28;20074;-76
2022/05/24 08:54:08;;;;;;;10.88;3.40;;;;;;;;;;5015271;28;20018;-81
2022/05/24 08:56:37;;;;;;;17.75;3.40;;;;;;;;;;5017589;28;20498;-81
2022/05/24 08:59:07;;;;;;;11.48;3.28;;;;;;;;;;5017864;28;20711;-81
2022/05/24 09:01:33;;;;;;;10.77;3.40;;;;;;;;;;5017632;28;20045;-82
2022/05/24 09:04:00;;;;;;;14.10;3.38;;;;;;;;;;5035637;28;20503;-82
2022/05/24 09:06:53;;;;;;;7.78;3.33;;;;;;;;;;5035851;28;20039;-77
2022/05/24 09:09:30;;;;;;;6.10;3.13;;;;;;;;;;4934054;29;20044;-80
2022/05/24 09:12:09;;;;;;;7.68;3.28;;;;;;;;;;4936500;29;20024;-80
2022/05/24 09:14:44;;;;;;;6.40;3.50;;;;;;;;;;4936097;29;20221;-81
2022/05/24 09:17:19;;;;;;;11.75;3.80;;;;;;;;;;4935801;29;20031;-75
2022/05/24 09:19:45;;;;;;;7.47;3.45;;;;;;;;;;4938549;29;20517;-76
2022/05/24 09:22:11;;;;;;;5.72;3.80;;;;;;;;;;4936048;29;20112;-79
2022/05/24 09:24:42;;;;;;;10.05;3.75;;;;;;;;;;4935626;29;20036;-79
2022/05/24 09:27:13;;;;;;;10.48;4.18;;;;;;;;;;4935685;29;20402;-78
2022/05/24 09:29:59;;;;;;;8.30;4.20;;;;;;;;;;4935654;29;20042;-81
2022/05/24 09:32:30;;;;;;;10.25;4.00;;;;;;;;;;4924600;29;20065;-77
2022/05/24 09:35:15;;;;;;;10.98;3.80;;;;;;;;;;4916977;29;20036;-76
2022/05/24 09:37:42;;;;;;;10.32;4.10;;;;;;;;;;4926986;29;20087;-78
2022/05/24 09:40:10;;;;;;;10.85;4.03;;;;;;;;;;4932945;29;20040;-76
2022/05/24 09:42:37;;;;;;;8.85;4.10;;;;;;;;;;4916910;29;20123;-81
2022/05/24 09:45:23;;;;;;;10.35;3.97;;;;;;;;;;4922761;28;20056;-81
2022/05/24 10:15:04;;;;;;;9.43;5.18;;;;;;;;;;5011550;28;20061;-80
2022/05/24 10:17:30;;;;;;;13.32;5.60;;;;;;;;;;5007740;28;20053;-83
2022/05/24 10:20:05;;;;;;;35.42;17.80;;;;;;;;;;4997065;28;20383;-81
2022/05/24 10:22:35;;;;;;;23.88;11.25;;;;;;;;;;4987683;28;20050;-86
2022/05/24 10:25:21;;;;;;;15.48;5.18;;;;;;;;;;5019028;28;20040;-81
2022/05/24 10:27:57;;;;;;;13.85;5.70;;;;;;;;;;5000445;28;20038;-79
2022/05/24 10:30:27;;;;;;;13.20;5.38;;;;;;;;;;5000777;28;20030;-87
2022/05/24 10:38:53;;;;;;;39.88;7.22;;;;;;;;;;5015593;28;20411;-73
2022/05/24 10:41:26;;;;;;;48.08;8.23;;;;;;;;;;5009954;28;20022;-83
2022/05/24 10:44:14;;;;;;;17.17;6.00;;;;;;;;;;4999369;28;20551;-84
2022/05/24 10:46:52;;;;;;;13.82;5.32;;;;;;;;;;4987148;28;20160;-79
2022/05/24 10:49:18;;;;;;;8.88;5.20;;;;;;;;;;4988700;28;20065;-73
2022/05/24 10:51:52;;;;;;;9.13;5.60;;;;;;;;;;4996827;28;20038;-80
2022/05/24 10:54:37;;;;;;;12.27;5.28;;;;;;;;;;5015617;28;20032;-78
2022/05/24 10:57:04;;;;;;;12.00;5.57;;;;;;;;;;5017428;28;20083;-76
2022/05/24 10:59:43;;;;;;;10.85;6.15;;;;;;;;;;5012013;28;20030;-74
2022/05/24 11:02:22;;;;;;;9.90;5.25;;;;;;;;;;5009309;28;20037;-84
2022/05/24 11:04:51;;;;;;;12.20;5.32;;;;;;;;;;5011122;28;20071;-87
2022/05/24 11:07:19;;;;;;;11.35;4.90;;;;;;;;;;4994215;28;20143;-81
2022/05/24 11:10:05;;;;;;;7.63;4.90;;;;;;;;;;5025219;28;20553;-72
2022/05/24 11:12:33;;;;;;;9.35;5.00;;;;;;;;;;5010044;28;20038;-81
2022/05/24 11:15:19;;;;;;;19.08;5.93;;;;;;;;;;4991840;28;20048;-80
2022/05/24 11:17:46;;;;;;;16.55;5.38;;;;;;;;;;4995403;28;20038;-81
2022/05/24 11:20:13;;;;;;;11.95;4.75;;;;;;;;;;5000455;28;20022;-79
2022/05/24 11:22:42;;;;;;;11.27;4.80;;;;;;;;;;5011411;28;20042;-77
2022/05/24 11:25:11;;;;;;;10.32;4.72;;;;;;;;;;5013832;28;20156;-76
2022/05/24 11:27:39;;;;;;;12.25;5.15;;;;;;;;;;5019570;28;20367;-78
2022/05/24 11:30:08;;;;;;;12.77;4.88;;;;;;;;;;4995296;28;20034;-80
2022/05/24 11:32:37;;;;;;;7.03;4.78;;;;;;;;;;5016886;28;20068;-82
2022/05/24 11:35:07;;;;;;;6.82;4.60;;;;;;;;;;4986462;28;20034;-84
2022/05/24 11:37:37;;;;;;;17.98;5.03;;;;;;;;;;5023404;28;20061;-86
2022/05/24 11:40:23;;;;;;;15.73;4.50;;;;;;;;;;5013381;28;20500;-83
2022/05/24 11:42:49;;;;;;;16.15;5.55;;;;;;;;;;5016117;28;20050;-79
2022/05/24 11:45:31;;;;;;;12.23;4.93;;;;;;;;;;4993796;28;20650;-76
2022/05/24 11:47:59;;;;;;;15.75;4.97;;;;;;;;;;5014946;28;20502;-74
2022/05/24 11:50:35;;;;;;;10.50;4.70;;;;;;;;;;5025284;28;20040;-74
2022/05/24 11:53:01;;;;;;;12.80;5.35;;;;;;;;;;5003985;28;20391;-83
2022/05/24 11:55:37;;;;;;;14.02;4.78;;;;;;;;;;4991602;28;20022;-80
2022/05/24 11:58:20;;;;;;;9.32;4.00;;;;;;;;;;5022233;28;20033;-83
2022/05/24 12:00:59;;;;;;;9.25;4.40;;;;;;;;;;5005419;28;20030;-84
2022/05/24 12:09:18;;;;;;;11.68;4.75;;;;;;;;;;5000089;28;20093;-72
2022/05/24 12:11:45;;;;;;;9.85;4.57;;;;;;;;;;5010913;28;20030;-71
2022/05/24 12:14:11;;;;;;;9.40;4.72;;;;;;;;;;5025705;28;20065;-70
2022/05/24 12:16:37;;;;;;;9.02;4.22;;;;;;;;;;5026932;28;20030;-71
2022/05/24 12:19:04;;;;;;;10.75;4.00;;;;;;;;;;5020758;28;20084;-72
2022/05/24 12:21:53;;;;;;;11.00;5.82;;;;;;;;;;5017091;28;20029;-69
2022/05/24 12:24:24;;;;;;;11.23;4.60;;;;;;;;;;5011719;28;20523;-67
2022/05/24 12:30:17;;;;;;;9.57;4.30;;;;;;;;;;3983951;23;20163;-66
2022/05/24 12:32:44;;;;;;;13.85;4.90;;;;;;;;;;5025905;28;20560;-67
2022/05/24 12:35:12;;;;;;;10.35;4.70;;;;;;;;;;5038311;28;20386;-68
2022/05/24 12:37:43;;;;;;;22.25;5.95;;;;;;;;;;5033076;28;20052;-74
2022/05/24 12:40:29;;;;;;;10.57;4.40;;;;;;;;;;5036665;28;20386;-69
2022/05/24 12:42:56;;;;;;;11.98;5.05;;;;;;;;;;5031045;28;20048;-73
2022/05/24 12:45:33;;;;;;;10.30;4.65;;;;;;;;;;5032251;28;20440;-75
2022/05/24 12:48:00;;;;;;;9.20;4.00;;;;;;;;;;5030796;28;20418;-72
2022/05/24 12:50:34;;;;;;;7.55;4.57;;;;;;;;;;5032400;28;20037;-76
2022/05/24 12:53:03;;;;;;;7.50;4.20;;;;;;;;;;5052118;28;20402;-69
2022/05/24 12:58:23;;;;;;;7.32;4.65;;;;;;;;;;5036071;28;20383;-74
2022/05/24 13:00:49;;;;;;;9.70;4.45;;;;;;;;;;5032146;28;20029;-74
2022/05/24 13:03:22;;;;;;;10.88;4.70;;;;;;;;;;5036709;28;20037;-71
2022/05/24 13:05:53;;;;;;;10.43;4.55;;;;;;;;;;5031484;28;20506;-76
2022/05/24 13:08:19;;;;;;;7.93;4.35;;;;;;;;;;5014297;28;20045;-76
2022/05/24 13:10:47;;;;;;;11.32;4.32;;;;;;;;;;5030692;28;20010;-74
2022/05/24 13:13:19;;;;;;;11.07;4.47;;;;;;;;;;5029839;28;20022;-71
2022/05/24 13:16:06;;;;;;;12.15;4.70;;;;;;;;;;5033420;28;20028;-75
2022/05/24 13:18:33;;;;;;;13.18;4.88;;;;;;;;;;5030338;28;20159;-73
2022/05/24 13:21:07;;;;;;;8.57;4.50;;;;;;;;;;5020621;28;20036;-70
2022/05/24 13:23:36;;;;;;;8.23;4.43;;;;;;;;;;5033651;28;20037;-75
2022/05/24 13:26:02;;;;;;;8.85;4.55;;;;;;;;;;5034055;28;20036;-74
2022/05/24 13:28:39;;;;;;;23.55;4.95;;;;;;;;;;5015298;28;20026;-75
2022/05/24 13:33:55;;;;;;;11.63;4.68;;;;;;;;;;5033210;28;20406;-77
2022/05/24 13:36:26;;;;;;;7.95;4.25;;;;;;;;;;5019475;28;20111;-81
2022/05/24 13:39:04;;;;;;;9.50;4.30;;;;;;;;;;5031191;28;20025;-79
2022/05/24 13:41:34;;;;;;;15.82;4.45;;;;;;;;;;5015041;28;20042;-81
2022/05/24 13:44:26;;;;;;;10.98;4.82;;;;;;;;;;5017600;28;20037;-81
2022/05/24 13:46:54;;;;;;;10.48;4.50;;;;;;;;;;4962418;28;20031;-72
2022/05/24 13:49:35;;;;;;;7.22;4.50;;;;;;;;;;4954762;28;20078;-71
2022/05/24 13:52:19;;;;;;;6.72;4.30;;;;;;;;;;4953922;29;20460;-73
2022/05/24 13:54:47;;;;;;;7.38;4.30;;;;;;;;;;4954478;29;20042;-71
2022/05/24 13:57:24;;;;;;;6.90;4.07;;;;;;;;;;4954023;29;20063;-71
2022/05/24 13:59:58;;;;;;;9.50;4.38;;;;;;;;;;4948431;28;20188;-75
2022/05/24 14:02:25;;;;;;;10.43;4.90;;;;;;;;;;4953275;29;20459;-74
2022/05/24 14:04:51;;;;;;;11.60;4.35;;;;;;;;;;4954013;28;20530;-72
2022/05/24 14:07:18;;;;;;;11.48;4.15;;;;;;;;;;4948022;28;20023;-71
2022/05/24 14:09:44;;;;;;;10.05;4.72;;;;;;;;;;4954071;28;20031;-71
2022/05/24 14:12:10;;;;;;;11.02;4.32;;;;;;;;;;4957694;28;20083;-72
2022/05/24 14:14:37;;;;;;;5.93;4.07;;;;;;;;;;4951915;28;20037;-72
2022/05/24 14:17:07;;;;;;;11.52;4.40;;;;;;;;;;4953174;28;20492;-75
2022/05/24 14:19:34;;;;;;;14.23;4.40;;;;;;;;;;4953699;28;20035;-73
2022/05/24 14:22:00;;;;;;;8.48;4.00;;;;;;;;;;4953320;28;20381;-88
2022/05/24 14:24:28;;;;;;;11.80;4.55;;;;;;;;;;5001418;28;20507;-88
2022/05/24 14:26:56;;;;;;;13.45;4.70;;;;;;;;;;5033754;28;20106;-89
2022/05/24 14:29:23;;;;;;;9.73;4.63;;;;;;;;;;5034470;28;20502;-85
2022/05/24 14:31:55;;;;;;;7.65;4.28;;;;;;;;;;5038658;28;20034;-87
2022/05/24 14:34:23;;;;;;;9.07;4.45;;;;;;;;;;5025723;28;20033;-88
2022/05/24 14:36:50;;;;;;;7.50;4.07;;;;;;;;;;5034669;28;20478;-78
2022/05/24 14:39:16;;;;;;;7.45;4.30;;;;;;;;;;5034233;28;20017;-89
2022/05/24 14:41:43;;;;;;;11.57;4.60;;;;;;;;;;5034432;28;20112;-83
2022/05/24 14:44:11;;;;;;;11.73;4.45;;;;;;;;;;5038395;28;20120;-72
2022/05/24 14:46:41;;;;;;;11.27;4.28;;;;;;;;;;5037055;28;20022;-89
2022/05/24 14:49:08;;;;;;;11.50;4.70;;;;;;;;;;5034272;28;20018;-89
2022/05/24 14:51:35;;;;;;;7.10;4.50;;;;;;;;;;5032638;28;20079;-72
2022/05/24 14:54:03;;;;;;;9.43;4.40;;;;;;;;;;5033432;28;20121;-80
2022/05/24 14:56:29;;;;;;;10.85;4.32;;;;;;;;;;5034509;28;20043;-76
2022/05/24 14:58:55;;;;;;;8.95;3.95;;;;;;;;;;5034520;28;20029;-90
2022/05/24 15:01:22;;;;;;;11.32;4.32;;;;;;;;;;5034203;28;20040;-86
2022/05/24 15:03:48;;;;;;;9.55;4.45;;;;;;;;;;5034396;28;20498;-89
2022/05/24 15:06:18;;;;;;;14.50;4.82;;;;;;;;;;5038277;28;20362;-86
2022/05/24 15:17:02;;;;;;;12.07;4.95;;;;;;;;;;5034457;28;20033;-75
2022/05/24 15:19:40;;;;;;;11.35;4.78;;;;;;;;;;5050509;28;20021;-83
2022/05/24 15:22:10;;;;;;;8.10;4.45;;;;;;;;;;5035933;28;20112;-89
2022/05/24 15:24:38;;;;;;;6.10;4.32;;;;;;;;;;5035855;28;20045;-73
2022/05/24 15:27:08;;;;;;;10.65;4.78;;;;;;;;;;5053951;28;20075;-75
2022/05/24 15:29:34;;;;;;;7.65;4.78;;;;;;;;;;5052093;28;20040;-75
2022/05/24 15:32:01;;;;;;;13.15;4.70;;;;;;;;;;5052686;28;20509;-89
2022/05/24 15:34:29;;;;;;;11.98;4.55;;;;;;;;;;5033429;28;20108;-74
2022/05/24 15:36:55;;;;;;;8.38;4.72;;;;;;;;;;5033614;28;20152;-73
2022/05/24 15:39:21;;;;;;;8.77;5.18;;;;;;;;;;5033317;28;20018;-89
2022/05/24 15:41:47;;;;;;;9.70;4.72;;;;;;;;;;5033917;28;20029;-85
2022/05/24 15:44:13;;;;;;;9.73;4.70;;;;;;;;;;5030804;28;20037;-72
2022/05/24 15:46:40;;;;;;;9.43;4.75;;;;;;;;;;5033183;28;20017;-90
2022/05/24 15:49:07;;;;;;;8.55;4.80;;;;;;;;;;5033447;28;20028;-88
2022/05/24 15:51:33;;;;;;;7.00;4.72;;;;;;;;;;5032097;28;20430;-89
2022/05/24 15:54:01;;;;;;;10.13;4.82;;;;;;;;;;5033068;28;20026;-73
2022/05/24 15:56:27;;;;;;;10.48;4.63;;;;;;;;;;5032067;28;20050;-80
2022/05/24 15:58:55;;;;;;;12.35;4.85;;;;;;;;;;5033441;28;20491;-89
2022/05/24 16:01:21;;;;;;;8.70;4.85;;;;;;;;;;5031605;28;20033;-73
2022/05/24 16:03:47;;;;;;;10.85;4.72;;;;;;;;;;5033078;28;20041;-89
2022/05/24 16:11:50;;;;;;;14.85;4.55;;;;;;;;;;5015341;28;20033;-88
2022/05/24 16:14:19;;;;;;;14.77;4.70;;;;;;;;;;5011987;28;20026;-89
2022/05/24 16:16:46;;;;;;;17.40;4.80;;;;;;;;;;5018401;28;20018;-84
2022/05/24 16:19:12;;;;;;;12.52;4.82;;;;;;;;;;5023182;28;20027;-87
2022/05/24 16:21:40;;;;;;;11.00;4.40;;;;;;;;;;5008573;28;20171;-84
2022/05/24 16:24:07;;;;;;;13.40;4.43;;;;;;;;;;5011288;28;20038;-75
2022/05/24 16:26:36;;;;;;;16.15;4.90;;;;;;;;;;5018000;28;20022;-82